createdAt,value
2018-11-14T00:00:13.903Z,3.20
2018-11-14T00:02:42.398Z,3.10
2018-11-14T00:05:10.865Z,5.72
2018-11-14T00:07:39.429Z,5.95
2018-11-14T00:10:08.914Z,3.25
2018-11-14T00:12:37.395Z,4.00
2018-11-14T00:15:08.128Z,4.53
2018-11-14T00:17:36.563Z,5.10
2018-11-14T00:20:06.734Z,3.37
2018-11-14T00:22:35.311Z,4.62
2018-11-14T00:25:04.002Z,2.45
2018-11-14T00:27:32.540Z,3.62
2018-11-14T00:30:01.136Z,3.50
2018-11-14T00:32:29.613Z,5.30
2018-11-14T00:34:58.677Z,3.92
2018-11-14T00:37:26.942Z,3.62
2018-11-14T00:39:55.422Z,3.40
2018-11-14T00:42:23.983Z,4.20
2018-11-14T00:44:52.450Z,2.98
2018-11-14T00:47:20.903Z,3.10
2018-11-14T00:49:49.408Z,3.00
2018-11-14T00:52:17.960Z,3.42
2018-11-14T00:54:46.488Z,4.55
2018-11-14T00:57:15.030Z,3.80
2018-11-14T00:59:43.627Z,5.42
2018-11-14T01:02:12.139Z,4.58
2018-11-14T01:04:41.249Z,3.00
2018-11-14T01:07:09.714Z,3.42
2018-11-14T01:09:38.265Z,3.02
2018-11-14T01:12:06.825Z,3.02
2018-11-14T01:14:36.314Z,6.62
2018-11-14T01:17:05.434Z,9.98
2018-11-14T01:19:34.800Z,3.50
2018-11-14T01:22:03.333Z,3.42
2018-11-14T01:24:32.189Z,3.40
2018-11-14T01:27:00.692Z,3.15
2018-11-14T01:29:29.329Z,2.90
2018-11-14T01:31:58.289Z,4.75
2018-11-14T01:34:26.831Z,2.87
2018-11-14T01:36:55.374Z,3.00
2018-11-14T01:39:23.834Z,7.20
2018-11-14T01:41:52.351Z,3.00
2018-11-14T01:44:20.900Z,6.17
2018-11-14T01:46:49.401Z,4.15
2018-11-14T01:49:17.878Z,5.12
2018-11-14T01:51:46.355Z,2.60
2018-11-14T01:54:14.821Z,4.17
2018-11-14T01:56:43.369Z,5.15
2018-11-14T01:59:11.977Z,4.50
2018-11-14T02:01:40.524Z,2.90
2018-11-14T02:04:09.017Z,4.15
2018-11-14T02:06:37.503Z,3.45
2018-11-14T02:09:07.618Z,5.33
2018-11-14T02:11:36.105Z,5.45
2018-11-14T02:14:04.973Z,3.20
2018-11-14T02:16:33.491Z,5.78
2018-11-14T02:19:02.084Z,3.08
2018-11-14T02:21:30.520Z,6.33
2018-11-14T02:23:59.054Z,2.92
2018-11-14T02:26:27.614Z,7.05
2018-11-14T02:28:56.089Z,5.25
2018-11-14T02:31:24.655Z,5.60
2018-11-14T02:33:53.178Z,4.30
2018-11-14T02:36:22.315Z,7.85
2018-11-14T02:38:50.759Z,3.90
2018-11-14T02:41:19.313Z,3.95
2018-11-14T02:43:48.415Z,4.72
2018-11-14T02:46:17.033Z,3.22
2018-11-14T02:48:45.530Z,6.12
2018-11-14T02:51:22.149Z,3.95
2018-11-14T02:53:50.611Z,2.85
2018-11-14T02:56:19.129Z,2.95
2018-11-14T02:58:47.643Z,6.50
2018-11-14T03:01:16.178Z,5.10
2018-11-14T03:03:44.725Z,3.08
2018-11-14T03:06:13.266Z,5.42
2018-11-14T03:08:41.849Z,3.30
2018-11-14T03:11:10.638Z,3.10
2018-11-14T03:13:39.380Z,5.50
2018-11-14T03:16:08.192Z,3.35
2018-11-14T03:18:36.601Z,4.40
2018-11-14T03:21:05.369Z,4.53
2018-11-14T03:23:33.838Z,7.70
2018-11-14T03:26:02.446Z,3.60
2018-11-14T03:28:31.001Z,3.37
2018-11-14T03:30:59.537Z,3.58
2018-11-14T03:33:28.017Z,3.85
2018-11-14T03:36:02.028Z,3.10
2018-11-14T03:38:30.512Z,5.25
2018-11-14T03:40:59.145Z,3.40
2018-11-14T03:43:27.613Z,4.37
2018-11-14T03:45:56.293Z,4.90
2018-11-14T03:48:24.753Z,5.80
2018-11-14T03:50:53.336Z,7.67
2018-11-14T03:53:21.933Z,3.58
2018-11-14T03:55:50.413Z,6.50
2018-11-14T03:58:19.199Z,3.25
2018-11-14T04:00:48.568Z,3.90
2018-11-14T04:03:17.073Z,3.27
2018-11-14T04:05:45.585Z,3.25
2018-11-14T04:08:14.069Z,4.03
2018-11-14T04:10:43.260Z,5.83
2018-11-14T04:13:12.758Z,4.03
2018-11-14T04:15:41.321Z,4.47
2018-11-14T04:18:09.798Z,4.15
2018-11-14T04:20:38.835Z,4.03
2018-11-14T04:23:08.238Z,3.75
2018-11-14T04:25:36.841Z,6.22
2018-11-14T04:28:05.530Z,7.00
2018-11-14T04:30:34.049Z,3.87
2018-11-14T04:33:02.589Z,3.40
2018-11-14T04:35:31.123Z,3.83
2018-11-14T04:37:59.607Z,6.45
2018-11-14T04:40:28.060Z,3.67
2018-11-14T04:42:56.610Z,3.00
2018-11-14T04:45:26.222Z,5.15
2018-11-14T04:47:54.820Z,3.83
2018-11-14T04:50:24.818Z,5.50
2018-11-14T04:52:53.592Z,4.22
2018-11-14T04:55:23.169Z,4.65
2018-11-14T04:57:51.766Z,3.10
2018-11-14T05:00:22.481Z,5.67
2018-11-14T05:02:51.536Z,4.83
2018-11-14T05:05:21.170Z,5.62
2018-11-14T05:07:49.611Z,4.25
2018-11-14T05:10:22.373Z,11.10
2018-11-14T05:12:51.358Z,12.95
2018-11-14T05:15:21.874Z,13.48
2018-11-14T05:17:51.011Z,8.58
2018-11-14T05:20:20.467Z,9.85
2018-11-14T05:22:49.430Z,10.48
2018-11-14T05:25:18.057Z,9.83
2018-11-14T05:27:46.601Z,15.63
2018-11-14T05:30:19.761Z,7.97
2018-11-14T05:32:49.344Z,7.58
2018-11-14T05:35:18.110Z,8.83
2018-11-14T05:37:47.729Z,10.38
2018-11-14T05:40:17.703Z,9.73
2018-11-14T05:42:47.012Z,13.22
2018-11-14T05:45:17.690Z,12.65
2018-11-14T05:47:46.276Z,7.00
2018-11-14T05:50:16.367Z,7.97
2018-11-14T05:52:45.020Z,6.35
2018-11-14T05:55:15.332Z,4.85
2018-11-14T05:57:44.563Z,12.00
2018-11-14T06:00:17.923Z,8.00
2018-11-14T06:02:47.273Z,16.12
2018-11-14T06:05:16.624Z,11.22
2018-11-14T06:07:45.354Z,8.20
2018-11-14T06:10:14.177Z,13.98
2018-11-14T06:12:43.195Z,18.35
2018-11-14T06:15:15.337Z,18.17
2018-11-14T06:17:44.873Z,5.85
2018-11-14T06:20:17.004Z,8.85
2018-11-14T06:22:46.728Z,11.93
2018-11-14T06:25:26.046Z,8.65
2018-11-14T06:27:56.055Z,11.40
2018-11-14T06:30:24.855Z,11.60
2018-11-14T06:32:53.964Z,9.75
2018-11-14T06:35:23.293Z,15.48
2018-11-14T06:37:53.381Z,10.50
2018-11-14T06:40:22.316Z,11.30
2018-11-14T06:42:51.084Z,13.00
2018-11-14T06:45:27.532Z,15.05
2018-11-14T06:47:57.286Z,15.95
2018-11-14T06:50:25.816Z,18.00
2018-11-14T06:52:55.861Z,18.98
2018-11-14T06:55:27.161Z,17.15
2018-11-14T06:57:56.438Z,15.32
2018-11-14T07:00:28.130Z,53.58
2018-11-14T07:02:57.377Z,14.03
2018-11-14T07:05:26.116Z,17.02
2018-11-14T07:07:54.733Z,9.15
2018-11-14T07:10:26.429Z,16.15
2018-11-14T07:12:59.212Z,9.18
2018-11-14T07:15:27.716Z,9.88
2018-11-14T07:17:56.231Z,37.15
2018-11-14T07:20:27.043Z,17.80
2018-11-14T07:22:55.453Z,12.18
2018-11-14T07:25:23.998Z,14.65
2018-11-14T07:27:52.479Z,12.23
2018-11-14T07:30:24.178Z,10.58
2018-11-14T07:32:54.243Z,28.10
2018-11-14T07:35:22.850Z,15.00
2018-11-14T07:38:40.441Z,10.20
2018-11-14T07:41:10.978Z,11.40
2018-11-14T07:43:40.315Z,8.45
2018-11-14T07:46:09.342Z,13.03
2018-11-14T07:48:38.404Z,8.03
2018-11-14T07:51:07.895Z,9.10
2018-11-14T07:53:36.434Z,5.97
2018-11-14T07:56:05.085Z,12.18
2018-11-14T07:58:33.591Z,6.42
2018-11-14T08:01:02.172Z,6.95
2018-11-14T08:03:31.672Z,9.43
2018-11-14T08:06:06.846Z,9.58
2018-11-14T08:08:35.919Z,8.08
2018-11-14T08:11:04.455Z,7.37
2018-11-14T08:13:34.309Z,7.58
2018-11-14T08:16:03.192Z,14.00
2018-11-14T08:18:31.864Z,10.63
2018-11-14T08:21:01.274Z,10.35
2018-11-14T08:23:29.777Z,9.50
2018-11-14T08:25:58.311Z,9.98
2018-11-14T08:28:26.876Z,16.35
2018-11-14T08:30:55.458Z,13.48
2018-11-14T08:33:23.943Z,17.82
2018-11-14T08:35:52.482Z,17.40
2018-11-14T08:38:20.994Z,11.38
2018-11-14T08:40:49.745Z,11.30
2018-11-14T08:43:18.220Z,16.40
2018-11-14T08:45:46.796Z,12.73
2018-11-14T08:48:15.281Z,15.00
2018-11-14T08:50:43.845Z,15.15
2018-11-14T08:53:13.615Z,13.65
2018-11-14T08:55:42.113Z,16.82
2018-11-14T08:58:11.973Z,28.60
2018-11-14T09:00:40.600Z,21.97
2018-11-14T09:03:10.615Z,19.73
2018-11-14T09:05:39.169Z,19.80
2018-11-14T09:08:07.736Z,21.48
2018-11-14T09:10:36.284Z,19.30
2018-11-14T09:13:04.936Z,20.32
2018-11-14T09:15:33.365Z,26.30
2018-11-14T09:18:01.971Z,23.87
2018-11-14T09:20:30.522Z,31.12
2018-11-14T09:22:59.121Z,22.15
2018-11-14T09:25:30.509Z,24.67
2018-11-14T09:27:59.996Z,26.62
2018-11-14T09:30:28.670Z,27.42
2018-11-14T09:32:57.398Z,20.95
2018-11-14T09:35:26.648Z,23.70
2018-11-14T09:37:56.273Z,25.45
2018-11-14T09:40:25.989Z,19.30
2018-11-14T09:42:54.520Z,24.10
2018-11-14T09:45:25.080Z,26.33
2018-11-14T09:47:53.667Z,30.65
2018-11-14T09:50:23.765Z,34.00
2018-11-14T09:52:53.733Z,35.08
2018-11-14T09:55:22.309Z,29.85
2018-11-14T09:57:50.862Z,33.13
2018-11-14T10:00:21.266Z,28.77
2018-11-14T10:02:51.287Z,33.18
2018-11-14T10:05:21.084Z,29.48
2018-11-14T10:07:49.658Z,34.18
2018-11-14T10:10:19.743Z,27.98
2018-11-14T10:12:49.249Z,34.88
2018-11-14T10:15:19.155Z,31.62
2018-11-14T10:17:49.862Z,37.15
2018-11-14T10:20:19.796Z,31.93
2018-11-14T10:22:54.823Z,34.55
2018-11-14T10:25:23.335Z,33.50
2018-11-14T10:27:51.817Z,39.30
2018-11-14T10:30:22.476Z,37.90
2018-11-14T10:32:51.651Z,33.35
2018-11-14T10:35:20.154Z,31.45
2018-11-14T10:37:48.735Z,35.33
2018-11-14T10:43:02.091Z,36.20
2018-11-14T10:45:30.751Z,32.90
2018-11-14T10:47:59.434Z,35.65
2018-11-14T10:50:28.603Z,35.92
2018-11-14T10:52:57.966Z,33.83
2018-11-14T10:55:26.565Z,34.85
2018-11-14T10:57:55.201Z,31.17
2018-11-14T11:00:31.005Z,26.85
2018-11-14T11:03:06.235Z,33.05
2018-11-14T11:05:43.992Z,31.75
2018-11-14T11:08:18.944Z,30.60
2018-11-14T11:11:53.989Z,27.75
2018-11-14T11:14:27.853Z,30.27
2018-11-14T11:17:01.786Z,31.97
2018-11-14T11:19:31.472Z,35.58
2018-11-14T11:22:00.153Z,39.13
2018-11-14T11:24:28.781Z,29.07
2018-11-14T11:26:57.324Z,24.40
2018-11-14T11:29:26.051Z,32.70
2018-11-14T11:31:54.630Z,37.23
2018-11-14T11:34:23.132Z,29.20
2018-11-14T11:36:51.647Z,28.42
2018-11-14T11:39:20.182Z,32.83
2018-11-14T11:41:48.690Z,32.45
2018-11-14T11:44:17.329Z,26.90
2018-11-14T11:46:45.915Z,33.83
2018-11-14T11:49:14.531Z,30.15
2018-11-14T11:51:43.126Z,28.98
2018-11-14T11:54:11.688Z,24.07
2018-11-14T11:56:40.285Z,30.32
2018-11-14T11:59:09.046Z,30.77
2018-11-14T12:01:38.061Z,30.72
2018-11-14T12:04:06.608Z,30.40
2018-11-14T12:07:01.985Z,26.97
2018-11-14T12:09:30.494Z,31.97
2018-11-14T12:11:59.049Z,31.15
2018-11-14T12:14:27.534Z,27.15
2018-11-14T12:16:56.064Z,29.87
2018-11-14T12:19:24.561Z,25.45
2018-11-14T12:21:53.203Z,24.52
2018-11-14T12:24:21.815Z,27.80
2018-11-14T12:26:50.340Z,24.23
2018-11-14T12:29:18.920Z,21.85
2018-11-14T12:31:47.535Z,21.55
2018-11-14T12:34:16.385Z,27.48
2018-11-14T12:36:45.053Z,26.40
2018-11-14T12:39:13.601Z,20.00
2018-11-14T12:41:42.278Z,20.43
2018-11-14T12:44:10.906Z,22.67
2018-11-14T12:46:39.402Z,23.83
2018-11-14T12:49:07.994Z,26.75
2018-11-14T12:51:36.648Z,25.00
2018-11-14T12:54:05.212Z,30.37
2018-11-14T12:56:33.849Z,31.00
2018-11-14T12:59:02.498Z,25.92
2018-11-14T13:01:31.047Z,26.17
2018-11-14T13:03:59.598Z,31.05
2018-11-14T13:06:28.201Z,25.30
2018-11-14T13:08:56.730Z,30.17
2018-11-14T13:11:25.329Z,29.12
2018-11-14T13:13:53.880Z,27.37
2018-11-14T13:16:22.658Z,26.27
2018-11-14T13:18:51.166Z,25.70
2018-11-14T13:21:19.780Z,24.43
2018-11-14T13:23:48.372Z,27.55
2018-11-14T13:26:16.964Z,22.15
2018-11-14T13:28:45.651Z,26.20
2018-11-14T13:31:14.092Z,30.60
2018-11-14T13:33:42.656Z,26.00
2018-11-14T13:36:11.206Z,23.55
2018-11-14T13:38:39.779Z,24.67
2018-11-14T13:41:08.360Z,24.90
2018-11-14T13:43:37.551Z,26.65
2018-11-14T13:46:06.144Z,26.48
2018-11-14T13:48:35.290Z,28.80
2018-11-14T13:51:05.319Z,28.12
2018-11-14T13:53:34.264Z,27.98
2018-11-14T13:56:03.250Z,28.25
2018-11-14T13:58:32.801Z,27.00
2018-11-14T14:01:01.617Z,26.40
2018-11-14T14:03:30.286Z,26.62
2018-11-14T14:05:59.136Z,22.45
2018-11-14T14:08:27.973Z,28.85
2018-11-14T14:10:56.575Z,24.98
2018-11-14T14:13:25.267Z,21.97
2018-11-14T14:15:53.968Z,22.60
2018-11-14T14:18:22.516Z,24.18
2018-11-14T14:20:51.054Z,26.75
2018-11-14T14:23:19.885Z,24.32
2018-11-14T14:25:48.585Z,25.72
2018-11-14T14:28:17.168Z,32.85
2018-11-14T14:30:45.868Z,26.65
2018-11-14T14:33:14.513Z,28.55
2018-11-14T14:35:43.073Z,26.02
2018-11-14T14:38:11.718Z,26.23
2018-11-14T14:40:42.279Z,31.68
2018-11-14T14:43:10.958Z,24.95
2018-11-14T14:45:39.541Z,26.52
2018-11-14T14:48:08.169Z,25.57
2018-11-14T14:50:36.869Z,33.30
2018-11-14T14:53:05.922Z,35.45
2018-11-14T14:55:34.529Z,30.05
2018-11-14T14:58:03.161Z,28.15
2018-11-14T15:00:31.836Z,23.83
2018-11-14T15:03:00.451Z,26.00
2018-11-14T15:05:29.119Z,27.82
2018-11-14T15:07:57.729Z,27.95
2018-11-14T15:10:26.248Z,26.15
2018-11-14T15:12:54.875Z,27.62
2018-11-14T15:15:23.556Z,26.55
2018-11-14T15:17:52.067Z,30.95
2018-11-14T15:20:22.860Z,25.85
2018-11-14T15:22:51.493Z,25.25
2018-11-14T15:25:21.439Z,29.60
2018-11-14T15:27:50.530Z,31.75
2018-11-14T15:30:21.666Z,25.27
2018-11-14T15:32:50.708Z,28.47
2018-11-14T15:35:19.428Z,29.95
2018-11-14T15:37:47.978Z,28.50
2018-11-14T15:40:18.335Z,27.65
2018-11-14T15:42:47.294Z,32.95
2018-11-14T15:45:18.580Z,31.73
2018-11-14T15:47:47.279Z,26.57
2018-11-14T15:50:17.437Z,31.33
2018-11-14T15:52:46.979Z,30.62
2018-11-14T15:55:16.746Z,30.72
2018-11-14T15:57:45.543Z,29.95
2018-11-14T16:00:17.147Z,29.40
2018-11-14T16:02:45.709Z,29.40
2018-11-14T16:05:20.426Z,28.10
2018-11-14T16:07:50.355Z,29.55
2018-11-14T16:10:20.263Z,31.70
2018-11-14T16:12:48.797Z,27.20
2018-11-14T16:15:20.539Z,29.70
2018-11-14T16:17:49.117Z,25.62
2018-11-14T16:20:19.263Z,24.25
2018-11-14T16:22:47.837Z,28.52
2018-11-14T16:25:17.600Z,26.97
2018-11-14T16:27:47.141Z,27.52
2018-11-14T16:30:17.937Z,33.50
2018-11-14T16:32:47.524Z,24.23
2018-11-14T16:35:16.010Z,29.30
2018-11-14T16:37:44.669Z,26.52
2018-11-14T16:40:17.358Z,25.50
2018-11-14T16:42:45.931Z,30.68
2018-11-14T16:45:14.917Z,30.50
2018-11-14T16:47:43.643Z,32.50
2018-11-14T16:50:13.621Z,27.22
2018-11-14T16:52:42.209Z,30.72
2018-11-14T16:55:12.056Z,29.20
2018-11-14T16:57:41.458Z,33.08
2018-11-14T17:00:13.003Z,29.63
2018-11-14T17:02:42.151Z,34.00
2018-11-14T17:05:11.100Z,23.80
2018-11-14T17:07:39.864Z,34.27
2018-11-14T17:10:12.331Z,28.92
2018-11-14T17:12:41.329Z,31.90
2018-11-14T17:15:11.708Z,31.40
2018-11-14T17:17:40.317Z,32.10
2018-11-14T17:20:09.633Z,31.75
2018-11-14T17:22:38.200Z,32.03
2018-11-14T17:25:07.349Z,44.03
2018-11-14T17:27:36.371Z,48.42
2018-11-14T17:30:07.312Z,44.30
2018-11-14T17:32:36.067Z,37.20
2018-11-14T17:35:05.848Z,38.88
2018-11-14T17:37:34.319Z,33.55
2018-11-14T17:40:02.850Z,37.38
2018-11-14T17:42:31.403Z,29.18
2018-11-14T17:45:00.367Z,29.75
2018-11-14T17:47:30.606Z,32.10
2018-11-14T17:50:00.271Z,23.02
2018-11-14T17:52:29.852Z,22.90
2018-11-14T17:54:58.989Z,26.20
2018-11-14T17:57:27.941Z,23.07
2018-11-14T17:59:56.399Z,22.22
2018-11-14T18:02:25.114Z,24.77
2018-11-14T18:04:53.645Z,43.13
2018-11-14T18:07:22.200Z,23.40
2018-11-14T18:09:50.682Z,20.40
2018-11-14T18:12:19.185Z,20.23
2018-11-14T18:14:48.755Z,19.37
2018-11-14T18:17:17.264Z,18.92
2018-11-14T18:19:46.422Z,15.78
2018-11-14T18:22:14.932Z,13.58
2018-11-14T18:24:43.464Z,18.92
2018-11-14T18:27:12.128Z,14.85
2018-11-14T18:29:40.639Z,17.57
2018-11-14T18:32:10.110Z,13.03
2018-11-14T18:34:38.590Z,23.67
2018-11-14T18:37:07.231Z,15.80
2018-11-14T18:39:35.801Z,19.85
2018-11-14T18:42:04.439Z,19.32
2018-11-14T18:44:33.288Z,14.93
2018-11-14T18:47:02.543Z,17.92
2018-11-14T18:49:30.978Z,19.37
2018-11-14T18:51:59.609Z,16.37
2018-11-14T18:54:28.882Z,17.05
2018-11-14T18:56:58.229Z,17.80
2018-11-14T18:59:27.717Z,16.77
2018-11-14T19:01:56.196Z,19.02
2018-11-14T19:04:24.798Z,20.05
2018-11-14T19:06:53.436Z,18.90
2018-11-14T19:09:22.673Z,24.30
2018-11-14T19:11:51.295Z,19.00
2018-11-14T19:14:19.950Z,22.13
2018-11-14T19:16:48.455Z,18.85
2018-11-14T19:19:17.059Z,21.27
2018-11-14T19:21:45.575Z,19.25
2018-11-14T19:24:14.278Z,19.82
2018-11-14T19:26:42.820Z,19.40
2018-11-14T19:29:11.266Z,23.55
2018-11-14T19:31:39.828Z,23.22
2018-11-14T19:34:08.285Z,20.23
2018-11-14T19:36:36.740Z,20.23
2018-11-14T19:39:08.354Z,22.00
2018-11-14T19:41:36.956Z,22.05
2018-11-14T19:44:05.915Z,18.50
2018-11-14T19:46:34.578Z,23.02
2018-11-14T19:49:03.128Z,22.67
2018-11-14T19:51:31.927Z,24.15
2018-11-14T19:54:00.624Z,20.12
2018-11-14T19:56:29.558Z,23.42
2018-11-14T19:58:58.343Z,22.50
2018-11-14T20:01:26.954Z,21.23
2018-11-14T20:03:55.792Z,22.32
2018-11-14T20:06:24.675Z,25.12
2018-11-14T20:08:53.412Z,26.15
2018-11-14T20:11:21.981Z,23.98
2018-11-14T20:13:50.738Z,28.73
2018-11-14T20:16:19.398Z,24.92
2018-11-14T20:18:48.094Z,23.35
2018-11-14T20:21:16.640Z,24.80
2018-11-14T20:23:45.358Z,25.90
2018-11-14T20:26:14.118Z,22.32
2018-11-14T20:28:42.837Z,28.15
2018-11-14T20:31:11.590Z,29.25
2018-11-14T20:33:40.397Z,23.32
2018-11-14T20:36:09.050Z,28.90
2018-11-14T20:38:37.918Z,24.02
2018-11-14T20:41:07.280Z,28.45
2018-11-14T20:43:36.070Z,31.35
2018-11-14T20:46:04.631Z,25.37
2018-11-14T20:48:33.447Z,29.57
2018-11-14T20:51:06.983Z,33.45
2018-11-14T20:53:35.689Z,27.75
2018-11-14T20:56:04.284Z,29.75
2018-11-14T20:58:33.098Z,27.82
2018-11-14T21:01:01.850Z,29.82
2018-11-14T21:03:30.394Z,27.35
2018-11-14T21:05:59.228Z,27.85
2018-11-14T21:08:27.870Z,30.40
2018-11-14T21:10:56.582Z,28.77
2018-11-14T21:13:25.284Z,28.05
2018-11-14T21:15:57.638Z,30.60
2018-11-14T21:18:27.129Z,31.27
2018-11-14T21:20:56.991Z,32.50
2018-11-14T21:23:26.523Z,34.05
2018-11-14T21:25:55.777Z,32.35
2018-11-14T21:28:25.271Z,28.20
2018-11-14T21:30:55.177Z,29.60
2018-11-14T21:33:24.374Z,35.55
2018-11-14T21:35:54.112Z,31.00
2018-11-14T21:38:24.209Z,34.20
2018-11-14T21:40:53.507Z,31.40
2018-11-14T21:43:22.677Z,29.75
2018-11-14T21:45:51.753Z,30.25
2018-11-14T21:48:21.663Z,29.77
2018-11-14T21:50:50.892Z,34.43
2018-11-14T21:53:20.236Z,29.42
2018-11-14T21:55:50.064Z,26.57
2018-11-14T21:58:19.638Z,28.95
2018-11-14T22:00:49.136Z,31.10
2018-11-14T22:03:19.064Z,29.80
2018-11-14T22:05:48.204Z,28.70
2018-11-14T22:08:17.340Z,24.95
2018-11-14T22:10:46.637Z,27.65
2018-11-14T22:13:15.824Z,30.37
2018-11-14T22:15:45.250Z,28.60
2018-11-14T22:18:14.575Z,28.12
2018-11-14T22:20:43.823Z,31.33
2018-11-14T22:23:13.397Z,30.10
2018-11-14T22:25:42.712Z,34.78
2018-11-14T22:28:12.569Z,28.07
2018-11-14T22:30:41.896Z,29.65
2018-11-14T22:33:11.549Z,26.65
2018-11-14T22:35:40.913Z,30.85
2018-11-14T22:59:00.807Z,32.60
2018-11-14T23:01:29.650Z,32.48
2018-11-14T23:03:58.545Z,29.05
2018-11-14T23:06:27.505Z,31.20
2018-11-14T23:08:56.575Z,32.90
2018-11-14T23:11:25.623Z,33.92
2018-11-14T23:13:55.156Z,32.95
2018-11-14T23:16:24.308Z,31.77
2018-11-14T23:18:53.354Z,31.10
2018-11-14T23:21:21.915Z,33.23
2018-11-14T23:23:50.748Z,32.08
2018-11-14T23:26:19.764Z,33.65
2018-11-14T23:28:48.755Z,32.23
2018-11-14T23:31:17.795Z,35.08
2018-11-14T23:33:46.789Z,37.05
2018-11-14T23:36:15.266Z,30.97
2018-11-14T23:38:43.849Z,35.50
2018-11-14T23:41:12.748Z,33.00
2018-11-14T23:43:41.641Z,30.12
2018-11-14T23:46:10.446Z,31.75
2018-11-14T23:48:39.947Z,30.40
2018-11-14T23:51:09.167Z,35.48
2018-11-14T23:53:38.771Z,31.60
2018-11-14T23:56:07.767Z,34.78
2018-11-14T23:58:36.661Z,36.40
